Time;durP1;ratioP1;P1;durP2;ratioP2;P2;SDS_P1;SDS_P2;PMS_P1;PMS_P2;Temp;Humidity;BMP_temperature;BMP_pressure;BME280_temperature;BME280_humidity;BME280_pressure;Samples;Min_cycle;Max_cycle;Signal;HPM_P1;HPM_P2
2022/12/02 00:01:53;;;;;;;51.43;31.20;;;5.90;99.90;;;;;;5053344;28;20166;-48
2022/12/02 00:04:19;;;;;;;51.27;32.23;;;5.90;99.90;;;;;;5052884;28;20175;-47
2022/12/02 00:06:45;;;;;;;51.50;32.93;;;5.70;99.90;;;;;;5052591;28;20258;-47
2022/12/02 00:09:14;;;;;;;55.07;32.93;;;5.40;99.90;;;;;;5052841;28;20257;-49
2022/12/02 00:11:40;;;;;;;58.37;33.27;;;5.00;99.90;;;;;;5052355;28;20617;-47
2022/12/02 00:14:18;;;;;;;56.60;34.27;;;4.90;99.90;;;;;;5052744;28;20178;-47
2022/12/02 00:16:44;;;;;;;55.53;33.43;;;4.80;99.90;;;;;;5053107;28;20242;-49
2022/12/02 00:19:09;;;;;;;53.50;32.00;;;4.90;99.90;;;;;;5052411;28;20245;-48
2022/12/02 00:21:35;;;;;;;60.50;35.10;;;5.10;99.90;;;;;;5051970;28;20693;-51
2022/12/02 00:24:00;;;;;;;59.47;35.40;;;5.40;99.90;;;;;;5052320;28;20167;-49
2022/12/02 00:26:26;;;;;;;64.23;36.07;;;5.30;99.90;;;;;;5051863;28;20232;-50
2022/12/02 00:28:51;;;;;;;58.87;35.33;;;5.30;99.90;;;;;;5052556;28;20242;-49
2022/12/02 00:31:17;;;;;;;61.63;36.97;;;5.50;99.90;;;;;;5052794;28;20187;-47
2022/12/02 00:33:42;;;;;;;65.07;36.60;;;5.90;99.90;;;;;;5052545;28;20179;-46
2022/12/02 00:36:08;;;;;;;64.83;36.37;;;5.80;99.90;;;;;;5051935;28;20254;-53
2022/12/02 00:38:33;;;;;;;57.27;34.53;;;5.80;99.90;;;;;;5052234;28;20207;-50
2022/12/02 00:40:59;;;;;;;66.73;36.30;;;5.70;99.90;;;;;;5052498;28;20214;-47
2022/12/02 00:48:53;;;;;;;71.90;39.47;;;5.50;99.90;;;;;;5052466;28;20202;-51
2022/12/02 00:51:18;;;;;;;74.30;38.87;;;5.20;99.90;;;;;;5051028;28;20179;-49
2022/12/02 00:53:44;;;;;;;72.40;38.93;;;5.20;99.90;;;;;;5052099;28;20217;-50
2022/12/02 00:56:10;;;;;;;66.07;36.90;;;5.20;99.90;;;;;;5052174;28;20201;-52
2022/12/02 00:58:35;;;;;;;63.53;36.77;;;5.30;99.90;;;;;;5052119;28;20715;-49
2022/12/02 01:01:01;;;;;;;61.37;34.17;;;5.20;99.90;;;;;;5052174;28;20163;-47
2022/12/02 01:03:26;;;;;;;62.53;35.13;;;5.10;99.90;;;;;;5052250;28;20168;-48
2022/12/02 01:05:52;;;;;;;62.70;34.47;;;5.20;99.90;;;;;;5051439;28;20211;-51
2022/12/02 01:08:17;;;;;;;58.87;35.73;;;5.30;99.90;;;;;;5051462;28;20234;-48
2022/12/02 01:10:43;;;;;;;59.07;35.90;;;5.30;99.90;;;;;;5052082;28;20175;-46
2022/12/02 01:13:08;;;;;;;63.10;36.43;;;5.20;99.90;;;;;;5051962;28;20229;-51
2022/12/02 01:15:34;;;;;;;60.17;33.77;;;5.20;99.90;;;;;;5051769;28;20270;-48
2022/12/02 01:18:00;;;;;;;58.40;34.87;;;5.20;99.90;;;;;;5051669;28;20206;-46
2022/12/02 01:20:26;;;;;;;66.87;37.33;;;5.30;99.90;;;;;;5051840;28;20214;-51
2022/12/02 01:22:51;;;;;;;61.37;37.23;;;5.50;99.90;;;;;;5051082;28;20167;-52
2022/12/02 01:25:17;;;;;;;57.57;34.60;;;5.60;99.90;;;;;;5051575;28;20171;-47
2022/12/02 01:27:42;;;;;;;55.57;33.57;;;5.60;99.90;;;;;;5051645;28;20698;-47
2022/12/02 01:30:08;;;;;;;51.50;31.37;;;5.60;99.90;;;;;;5051876;28;20703;-51
2022/12/02 01:32:34;;;;;;;50.53;31.27;;;5.50;99.90;;;;;;5051555;28;20181;-52
2022/12/02 01:34:59;;;;;;;54.50;33.30;;;5.40;99.90;;;;;;5051309;28;20194;-51
2022/12/02 01:37:25;;;;;;;52.10;32.53;;;5.10;99.90;;;;;;5051540;28;20199;-51
2022/12/02 01:39:50;;;;;;;57.43;33.47;;;5.00;99.90;;;;;;5051345;28;20249;-48
2022/12/02 01:42:16;;;;;;;54.53;32.40;;;5.10;99.90;;;;;;5051811;28;20179;-46
2022/12/02 01:44:42;;;;;;;51.87;30.67;;;5.20;99.90;;;;;;5051281;28;20173;-51
2022/12/02 01:47:07;;;;;;;49.53;30.30;;;5.40;99.90;;;;;;5051615;28;20194;-52
2022/12/02 01:49:33;;;;;;;49.57;30.20;;;5.60;99.90;;;;;;5051468;28;20228;-52
2022/12/02 01:51:58;;;;;;;48.33;31.47;;;5.50;99.90;;;;;;5051491;28;20656;-51
2022/12/02 01:54:24;;;;;;;50.60;29.93;;;5.50;99.90;;;;;;5051162;28;20643;-48
2022/12/02 01:56:50;;;;;;;47.60;30.00;;;5.30;99.90;;;;;;5051586;28;20209;-49
2022/12/02 01:59:16;;;;;;;46.03;29.37;;;5.30;99.90;;;;;;5051308;28;20700;-52
2022/12/02 02:01:42;;;;;;;51.37;31.77;;;5.30;99.90;;;;;;5051599;28;20181;-47
2022/12/02 02:04:09;;;;;;;46.43;29.37;;;5.30;99.90;;;;;;5051210;28;20163;-50
2022/12/02 02:06:41;;;;;;;47.37;30.23;;;5.30;99.90;;;;;;5051274;28;20580;-49
2022/12/02 02:09:07;;;;;;;46.80;29.97;;;5.30;99.90;;;;;;5051284;28;20630;-49
2022/12/02 02:11:35;;;;;;;49.63;31.17;;;5.20;99.90;;;;;;5051336;28;20266;-50
2022/12/02 02:14:05;;;;;;;50.30;31.07;;;5.30;99.90;;;;;;5051349;28;20664;-51
2022/12/02 02:16:31;;;;;;;52.83;32.97;;;5.20;99.90;;;;;;5051300;28;20179;-52
2022/12/02 02:18:57;;;;;;;47.57;29.17;;;5.30;99.90;;;;;;5051259;28;20573;-50
2022/12/02 02:21:28;;;;;;;49.70;30.77;;;5.20;99.90;;;;;;5050781;28;20176;-53
2022/12/02 02:23:54;;;;;;;51.50;32.13;;;5.20;99.90;;;;;;5051047;28;20560;-49
2022/12/02 02:26:20;;;;;;;48.40;30.47;;;5.20;99.90;;;;;;5051114;28;20179;-49
2022/12/02 02:28:45;;;;;;;51.93;30.10;;;5.10;99.90;;;;;;5051216;28;20203;-52
2022/12/02 02:31:11;;;;;;;46.10;29.17;;;5.10;99.90;;;;;;5051195;28;20186;-48
2022/12/02 02:33:38;;;;;;;53.67;32.70;;;5.20;99.90;;;;;;5051002;28;20183;-48
2022/12/02 02:36:04;;;;;;;47.53;29.97;;;5.20;99.90;;;;;;5050842;28;20183;-48
2022/12/02 02:38:30;;;;;;;49.60;30.73;;;5.30;99.90;;;;;;5050924;28;20191;-51
2022/12/02 02:40:57;;;;;;;46.03;29.63;;;5.30;99.90;;;;;;5051235;28;20182;-52
2022/12/02 02:43:25;;;;;;;49.90;31.13;;;5.30;99.90;;;;;;5052693;28;20241;-50
2022/12/02 02:45:52;;;;;;;49.47;31.23;;;5.40;99.90;;;;;;5054625;28;20171;-53
2022/12/02 02:48:19;;;;;;;51.13;31.70;;;5.30;99.90;;;;;;5054511;28;20236;-52
2022/12/02 02:50:46;;;;;;;45.20;30.43;;;5.20;99.90;;;;;;5054523;28;20175;-47
2022/12/02 02:53:14;;;;;;;51.27;32.40;;;5.30;99.90;;;;;;5054547;28;20225;-50
2022/12/02 02:55:40;;;;;;;51.17;31.83;;;5.30;99.90;;;;;;5054556;28;20186;-48
2022/12/02 02:58:16;;;;;;;49.70;30.67;;;5.30;99.90;;;;;;5054437;28;20195;-52
2022/12/02 03:00:46;;;;;;;50.27;31.00;;;5.10;99.90;;;;;;5054452;28;20289;-51
2022/12/02 03:03:14;;;;;;;48.70;29.63;;;5.30;99.90;;;;;;5054336;28;20164;-53
2022/12/02 03:05:40;;;;;;;49.67;30.57;;;5.30;99.90;;;;;;5054098;28;20203;-52
2022/12/02 03:08:06;;;;;;;58.83;31.77;;;5.30;99.90;;;;;;5053386;28;20744;-52
2022/12/02 03:10:32;;;;;;;45.80;28.83;;;5.30;99.90;;;;;;5054426;28;20175;-51
2022/12/02 03:12:58;;;;;;;48.43;31.07;;;5.30;99.90;;;;;;5054451;28;20552;-50
2022/12/02 03:15:27;;;;;;;45.73;30.43;;;5.30;99.90;;;;;;5053837;28;20183;-50
2022/12/02 03:17:53;;;;;;;49.00;30.77;;;5.30;99.90;;;;;;5054043;28;20199;-50
2022/12/02 03:20:21;;;;;;;51.90;30.93;;;5.30;99.90;;;;;;5053927;28;20579;-49
2022/12/02 03:22:47;;;;;;;52.87;31.43;;;5.10;99.90;;;;;;5053333;28;20589;-48
2022/12/02 03:25:12;;;;;;;49.57;31.93;;;5.20;99.90;;;;;;5053634;28;20180;-51
2022/12/02 03:27:38;;;;;;;46.63;28.97;;;5.40;99.90;;;;;;5053867;28;20191;-50
2022/12/02 03:30:05;;;;;;;51.13;29.97;;;5.30;99.90;;;;;;5053902;28;20188;-52
2022/12/02 03:32:31;;;;;;;49.93;31.03;;;5.10;99.90;;;;;;5053987;28;20644;-49
2022/12/02 03:34:57;;;;;;;45.33;27.53;;;5.20;99.90;;;;;;5053398;28;20175;-49
2022/12/02 03:37:23;;;;;;;50.67;30.67;;;4.90;99.90;;;;;;5051940;28;20199;-47
2022/12/02 03:39:49;;;;;;;48.13;30.10;;;5.20;99.90;;;;;;5051729;28;20269;-49
2022/12/02 03:42:15;;;;;;;61.73;33.53;;;5.30;99.90;;;;;;5051939;28;20171;-47
2022/12/02 03:44:42;;;;;;;53.03;30.87;;;5.20;99.90;;;;;;5052524;28;20175;-49
2022/12/02 03:47:08;;;;;;;54.50;31.87;;;5.20;99.90;;;;;;5052668;28;20171;-47
2022/12/02 03:49:35;;;;;;;52.00;31.33;;;5.10;99.90;;;;;;5053646;28;20194;-47
2022/12/02 03:52:00;;;;;;;53.20;30.97;;;4.90;99.90;;;;;;5053127;28;20586;-48
2022/12/02 03:54:26;;;;;;;54.07;32.83;;;5.20;99.90;;;;;;5052144;28;20258;-47
2022/12/02 03:56:52;;;;;;;56.47;33.80;;;5.20;99.90;;;;;;5053195;28;20187;-48
2022/12/02 03:59:22;;;;;;;48.00;28.77;;;5.20;99.90;;;;;;5053094;28;20675;-50
2022/12/02 04:01:48;;;;;;;51.40;30.13;;;5.00;99.90;;;;;;5053542;28;20772;-47
2022/12/02 04:04:14;;;;;;;48.50;30.53;;;5.00;99.90;;;;;;5053079;28;20199;-50
2022/12/02 04:06:40;;;;;;;53.43;30.73;;;;;;;;;;5052244;28;20168;-47
2022/12/02 04:09:05;;;;;;;53.77;31.47;;;4.70;99.90;;;;;;5053144;28;20726;-47
2022/12/02 04:11:31;;;;;;;49.87;29.63;;;4.70;99.90;;;;;;5053235;28;20179;-47
2022/12/02 04:13:57;;;;;;;50.60;32.00;;;4.70;99.90;;;;;;5052719;28;20191;-48
2022/12/02 04:16:22;;;;;;;49.17;30.33;;;4.70;99.90;;;;;;5053104;28;20187;-51
2022/12/02 04:18:48;;;;;;;52.57;31.53;;;4.80;99.90;;;;;;5052765;28;20917;-47
2022/12/02 04:21:13;;;;;;;50.00;31.20;;;4.90;99.90;;;;;;5052882;28;20528;-51
2022/12/02 04:23:39;;;;;;;50.00;31.23;;;5.00;99.90;;;;;;5052527;28;20206;-50
2022/12/02 04:26:05;;;;;;;49.83;30.40;;;5.10;99.90;;;;;;5053085;28;20175;-52
2022/12/02 04:28:31;;;;;;;52.03;30.73;;;5.30;99.90;;;;;;5052331;28;20256;-47
2022/12/02 04:30:56;;;;;;;55.03;32.83;;;5.40;99.90;;;;;;5052826;28;20540;-47
2022/12/02 04:33:22;;;;;;;51.90;31.63;;;5.40;99.90;;;;;;5052683;28;20186;-48
2022/12/02 04:35:47;;;;;;;53.53;32.20;;;5.50;99.90;;;;;;5051857;28;20188;-52
2022/12/02 04:38:13;;;;;;;47.43;30.73;;;5.40;99.90;;;;;;5052009;28;20202;-49
2022/12/02 04:40:39;;;;;;;48.80;29.73;;;5.50;99.90;;;;;;5052248;28;20241;-49
2022/12/02 04:43:05;;;;;;;49.70;29.90;;;5.60;99.90;;;;;;5052545;28;20171;-51
2022/12/02 04:45:30;;;;;;;46.93;29.20;;;5.70;99.90;;;;;;5052177;28;20244;-51
2022/12/02 04:47:56;;;;;;;47.20;29.33;;;5.70;99.90;;;;;;5052345;28;20195;-48
2022/12/02 04:50:22;;;;;;;45.67;29.00;;;5.70;99.90;;;;;;5052189;28;20627;-48
2022/12/02 04:52:47;;;;;;;45.57;29.13;;;5.80;99.90;;;;;;5051744;28;20210;-50
2022/12/02 04:55:13;;;;;;;52.23;32.30;;;5.90;99.90;;;;;;5051992;28;20198;-51
2022/12/02 04:57:38;;;;;;;52.70;32.83;;;6.00;99.90;;;;;;5052147;28;20199;-47
2022/12/02 05:00:06;;;;;;;48.57;29.87;;;6.00;99.90;;;;;;5052125;28;20249;-47
2022/12/02 05:02:32;;;;;;;48.53;30.30;;;5.90;99.90;;;;;;5052557;28;20175;-49
2022/12/02 05:04:57;;;;;;;45.67;29.23;;;5.90;99.90;;;;;;5051662;28;20873;-52
2022/12/02 05:07:23;;;;;;;43.63;28.90;;;5.90;99.90;;;;;;5051391;28;20206;-47
2022/12/02 05:09:48;;;;;;;45.53;28.40;;;5.90;99.90;;;;;;5053265;28;20190;-47
2022/12/02 05:12:15;;;;;;;47.33;29.63;;;5.90;99.90;;;;;;5051961;28;20242;-50
2022/12/02 05:14:41;;;;;;;50.43;29.57;;;6.00;99.90;;;;;;5051893;28;20203;-48
2022/12/02 05:17:07;;;;;;;43.43;28.53;;;6.00;99.90;;;;;;5051752;28;20711;-49
2022/12/02 05:19:32;;;;;;;46.97;29.33;;;6.00;99.90;;;;;;5051827;28;20238;-52
2022/12/02 05:21:58;;;;;;;45.97;28.77;;;6.00;99.90;;;;;;5050825;28;20175;-50
2022/12/02 05:24:23;;;;;;;46.27;29.40;;;6.10;99.90;;;;;;5051467;28;20604;-51
2022/12/02 05:26:49;;;;;;;46.67;29.50;;;6.30;99.90;;;;;;5051618;28;20175;-50
2022/12/02 05:29:14;;;;;;;44.13;28.23;;;6.20;99.90;;;;;;5051776;28;20190;-46
2022/12/02 05:31:40;;;;;;;45.53;29.47;;;6.20;99.90;;;;;;5051508;28;20178;-50
2022/12/02 05:34:05;;;;;;;45.20;28.37;;;6.20;99.90;;;;;;5050323;28;20732;-49
2022/12/02 05:36:31;;;;;;;46.67;28.87;;;6.10;99.90;;;;;;5050963;28;20201;-49
2022/12/02 05:38:56;;;;;;;44.00;28.67;;;6.10;99.90;;;;;;5051406;28;20217;-48
2022/12/02 05:41:22;;;;;;;44.77;28.63;;;6.10;99.90;;;;;;5051529;28;20167;-49
2022/12/02 05:43:48;;;;;;;41.97;27.90;;;6.10;99.90;;;;;;5051323;28;20175;-47
2022/12/02 05:46:16;;;;;;;40.03;26.83;;;6.20;99.90;;;;;;5051767;28;20178;-48
2022/12/02 05:48:43;;;;;;;43.03;28.30;;;6.20;99.90;;;;;;5051382;28;20209;-47
2022/12/02 05:51:13;;;;;;;43.83;27.13;;;6.30;99.90;;;;;;5050817;28;20250;-54
2022/12/02 05:53:41;;;;;;;42.80;27.67;;;6.30;99.90;;;;;;5050988;28;20179;-48
2022/12/02 05:56:23;;;;;;;45.03;27.87;;;6.30;99.90;;;;;;5051609;28;20178;-52
2022/12/02 05:58:49;;;;;;;43.27;26.33;;;6.30;99.90;;;;;;5051200;28;20277;-52
2022/12/02 06:01:53;;;;;;;40.13;26.57;;;6.30;99.90;;;;;;5051570;28;20270;-48
2022/12/02 06:04:24;;;;;;;45.00;28.10;;;6.20;99.90;;;;;;4969817;28;20198;-47
2022/12/02 06:06:53;;;;;;;47.33;28.87;;;6.30;99.90;;;;;;4970504;28;20690;-50
2022/12/02 06:09:31;;;;;;;44.80;27.90;;;6.30;99.90;;;;;;4969935;28;20256;-48
2022/12/02 06:11:56;;;;;;;40.03;27.10;;;6.40;99.90;;;;;;4970637;28;20192;-52
2022/12/02 06:14:24;;;;;;;42.30;27.47;;;6.30;99.90;;;;;;4969786;28;20806;-53
2022/12/02 06:16:57;;;;;;;42.57;27.67;;;6.40;99.90;;;;;;4970345;28;20186;-48
2022/12/02 06:19:40;;;;;;;40.53;26.37;;;6.20;99.90;;;;;;4973558;28;20229;-53
2022/12/02 06:22:13;;;;;;;41.10;26.90;;;6.30;99.90;;;;;;4974048;28;20667;-49
2022/12/02 06:24:38;;;;;;;41.07;26.47;;;6.30;99.90;;;;;;4973324;28;20268;-48
2022/12/02 06:27:04;;;;;;;42.33;27.67;;;6.20;99.90;;;;;;4973214;28;20269;-48
2022/12/02 06:29:31;;;;;;;40.70;26.27;;;6.30;99.90;;;;;;4974068;28;20202;-48
2022/12/02 06:31:59;;;;;;;41.73;26.57;;;6.30;99.90;;;;;;4973142;28;20297;-52
2022/12/02 06:34:37;;;;;;;40.43;26.63;;;6.20;99.90;;;;;;4974823;28;20658;-50
2022/12/02 06:37:20;;;;;;;40.20;25.57;;;6.30;99.90;;;;;;4973013;28;20196;-47
2022/12/02 06:39:47;;;;;;;34.50;23.53;;;6.30;99.90;;;;;;4986835;28;20219;-48
2022/12/02 06:42:30;;;;;;;38.87;24.33;;;6.20;99.90;;;;;;5054691;28;20632;-47
2022/12/02 06:45:19;;;;;;;39.23;24.97;;;6.20;99.90;;;;;;5053465;28;20190;-47
2022/12/02 06:48:03;;;;;;;36.97;24.20;;;6.20;99.90;;;;;;5045706;28;20574;-48
2022/12/02 06:50:31;;;;;;;35.80;23.47;;;6.20;99.90;;;;;;5034777;28;20245;-51
2022/12/02 06:53:18;;;;;;;35.97;24.80;;;6.20;99.90;;;;;;5034422;28;20171;-54
2022/12/02 06:55:45;;;;;;;37.37;24.63;;;6.30;99.90;;;;;;5034623;28;20176;-51
2022/12/02 06:58:33;;;;;;;36.23;23.77;;;6.20;99.90;;;;;;5034416;28;20782;-49
2022/12/02 07:01:13;;;;;;;37.73;24.00;;;6.30;99.90;;;;;;5034738;28;20184;-56
2022/12/02 07:04:08;;;;;;;44.73;25.87;;;6.30;99.90;;;;;;5034276;28;20170;-50
2022/12/02 07:06:40;;;;;;;37.40;24.57;;;6.30;99.90;;;;;;4972918;28;20280;-50
2022/12/02 07:09:29;;;;;;;37.43;24.87;;;6.40;99.90;;;;;;4973287;28;20718;-52
2022/12/02 07:11:57;;;;;;;37.87;24.87;;;6.30;99.90;;;;;;4973421;28;20190;-49
2022/12/02 07:14:42;;;;;;;37.03;24.47;;;6.30;99.90;;;;;;4972952;28;20186;-47
2022/12/02 07:17:28;;;;;;;35.03;23.83;;;6.20;99.90;;;;;;4973174;28;20726;-49
2022/12/02 07:19:54;;;;;;;36.93;22.80;;;6.20;99.90;;;;;;4973078;28;20878;-47
2022/12/02 07:22:55;;;;;;;46.50;27.13;;;6.30;99.90;;;;;;4972165;28;20185;-47
2022/12/02 07:25:30;;;;;;;37.37;24.80;;;6.30;99.90;;;;;;4933215;29;20202;-52
2022/12/02 07:27:55;;;;;;;38.93;23.60;;;6.40;99.90;;;;;;4934512;29;20203;-48
2022/12/02 07:30:40;;;;;;;38.37;25.90;;;6.40;99.90;;;;;;4934408;29;20755;-54
2022/12/02 07:33:05;;;;;;;38.17;25.63;;;6.30;99.90;;;;;;4934569;29;20234;-52
2022/12/02 07:35:31;;;;;;;41.93;30.33;;;6.30;99.90;;;;;;4933872;29;20553;-53
2022/12/02 07:37:57;;;;;;;41.50;27.07;;;6.20;99.90;;;;;;4934278;29;20203;-52
2022/12/02 07:40:22;;;;;;;41.63;26.07;;;5.90;99.90;;;;;;4934208;29;20689;-49
2022/12/02 07:42:48;;;;;;;41.20;25.40;;;5.70;99.90;;;;;;4959542;28;20670;-51
2022/12/02 07:45:17;;;;;;;54.70;38.63;;;5.70;99.90;;;;;;4992005;28;20271;-52
2022/12/02 07:47:43;;;;;;;40.83;27.23;;;5.70;99.90;;;;;;4991837;28;20255;-47
2022/12/02 07:50:10;;;;;;;39.80;26.43;;;5.70;99.90;;;;;;4991914;28;20185;-51
2022/12/02 07:52:35;;;;;;;41.57;26.93;;;5.70;99.90;;;;;;4991720;28;20678;-49
2022/12/02 07:55:01;;;;;;;38.73;24.33;;;5.70;99.90;;;;;;4991713;28;20219;-54
2022/12/02 07:57:27;;;;;;;37.73;24.80;;;5.50;99.90;;;;;;4990388;28;20708;-48
2022/12/02 07:59:53;;;;;;;41.00;26.70;;;5.50;99.90;;;;;;4991011;28;20682;-54
2022/12/02 08:02:19;;;;;;;48.47;30.13;;;5.40;99.90;;;;;;5023415;28;20187;-56
2022/12/02 08:04:45;;;;;;;49.97;30.80;;;;;;;;;;5032400;28;20229;-51
2022/12/02 08:07:10;;;;;;;45.93;27.60;;;5.30;99.90;;;;;;5031625;28;20179;-53
2022/12/02 08:09:36;;;;;;;48.23;28.50;;;5.30;99.90;;;;;;5032707;28;20206;-51
2022/12/02 08:12:02;;;;;;;46.27;28.80;;;;;;;;;;5032578;28;20262;-52
2022/12/02 08:14:28;;;;;;;43.63;28.27;;;;;;;;;;5032197;28;20172;-52
2022/12/02 08:16:53;;;;;;;48.77;29.50;;;5.50;99.90;;;;;;5032532;28;20179;-49
2022/12/02 08:19:19;;;;;;;43.83;27.73;;;5.60;99.90;;;;;;5032241;28;20605;-52
2022/12/02 08:21:44;;;;;;;46.00;28.40;;;5.60;99.90;;;;;;5031283;28;20178;-49
2022/12/02 08:24:10;;;;;;;49.40;31.10;;;5.70;99.90;;;;;;5031870;28;20176;-55
2022/12/02 08:26:36;;;;;;;48.70;29.37;;;5.70;99.90;;;;;;5032331;28;20649;-51
2022/12/02 08:29:01;;;;;;;52.07;31.07;;;5.70;99.90;;;;;;5031994;28;20555;-50
2022/12/02 08:31:28;;;;;;;47.23;30.70;;;5.80;99.90;;;;;;5032433;28;20515;-50
2022/12/02 08:33:53;;;;;;;51.60;30.30;;;5.90;99.90;;;;;;5031820;28;20186;-50
2022/12/02 08:36:20;;;;;;;47.30;30.20;;;5.90;99.90;;;;;;5032111;28;20183;-50
2022/12/02 08:38:46;;;;;;;49.20;28.90;;;5.80;99.90;;;;;;5038210;28;20217;-56
2022/12/02 08:41:12;;;;;;;43.43;27.53;;;5.70;99.90;;;;;;5033298;28;20175;-49
2022/12/02 08:43:38;;;;;;;45.20;28.07;;;5.80;99.90;;;;;;5051746;28;20194;-52
2022/12/02 08:46:04;;;;;;;45.37;29.17;;;5.70;99.90;;;;;;5051828;28;20185;-50
2022/12/02 08:48:30;;;;;;;51.10;30.47;;;5.80;99.90;;;;;;5051813;28;20586;-51
2022/12/02 08:50:56;;;;;;;51.97;31.03;;;5.70;99.90;;;;;;5033700;28;20182;-51
2022/12/02 08:53:22;;;;;;;53.87;31.77;;;5.60;99.90;;;;;;5051814;28;20210;-51
2022/12/02 08:55:47;;;;;;;48.40;27.77;;;5.50;99.90;;;;;;5051360;28;20248;-49
2022/12/02 08:58:13;;;;;;;46.93;29.80;;;5.40;99.90;;;;;;5033965;28;20614;-51
2022/12/02 09:00:39;;;;;;;48.37;29.67;;;5.40;99.90;;;;;;5051566;28;20560;-53
2022/12/02 09:03:06;;;;;;;47.07;28.70;;;5.40;99.90;;;;;;5051662;28;20198;-52
2022/12/02 09:05:32;;;;;;;49.50;30.10;;;5.60;99.90;;;;;;5051069;28;20589;-54
2022/12/02 09:07:58;;;;;;;43.37;28.87;;;5.50;99.90;;;;;;5051492;28;20210;-49
2022/12/02 09:10:23;;;;;;;47.00;30.50;;;5.50;99.90;;;;;;5051624;28;20179;-48
2022/12/02 09:12:49;;;;;;;45.60;29.37;;;5.50;99.90;;;;;;5051499;28;20171;-52
2022/12/02 09:15:14;;;;;;;45.13;29.60;;;5.60;99.90;;;;;;5051459;28;20194;-49
2022/12/02 09:17:40;;;;;;;45.87;29.40;;;5.50;99.90;;;;;;5051151;28;20206;-47
2022/12/02 09:20:06;;;;;;;52.30;32.97;;;5.50;99.90;;;;;;5051141;28;20205;-50
2022/12/02 09:22:32;;;;;;;47.37;29.10;;;5.50;99.90;;;;;;5051130;28;20171;-51
2022/12/02 09:24:57;;;;;;;50.43;31.30;;;5.50;99.90;;;;;;5050991;28;20224;-48
2022/12/02 09:27:23;;;;;;;53.33;35.43;;;5.80;99.90;;;;;;5050734;28;20167;-47
2022/12/02 09:29:48;;;;;;;46.83;30.30;;;5.90;99.90;;;;;;5051155;28;20179;-50
2022/12/02 09:32:14;;;;;;;43.57;28.70;;;7.60;99.90;;;;;;5049293;28;20183;-47
2022/12/02 09:34:40;;;;;;;45.77;29.93;;;5.40;99.90;;;;;;5048585;28;20611;-49
2022/12/02 09:37:05;;;;;;;52.00;32.23;;;5.30;99.90;;;;;;5049103;28;20266;-48
2022/12/02 09:39:31;;;;;;;54.17;33.47;;;5.40;99.90;;;;;;5050393;28;20199;-48
2022/12/02 09:41:57;;;;;;;46.53;30.53;;;5.50;99.90;;;;;;5049857;28;20233;-47
2022/12/02 09:44:24;;;;;;;44.23;30.17;;;5.70;99.90;;;;;;5049753;28;20175;-47
2022/12/02 09:46:49;;;;;;;44.00;28.53;;;5.50;99.90;;;;;;5050887;28;20167;-49
2022/12/02 09:49:15;;;;;;;43.43;28.43;;;5.30;99.90;;;;;;5050774;28;20206;-48
2022/12/02 09:51:41;;;;;;;47.33;29.57;;;5.30;99.90;;;;;;5050156;28;20601;-48
2022/12/02 09:54:07;;;;;;;50.70;31.63;;;5.30;99.90;;;;;;5052737;28;20667;-48
2022/12/02 09:56:34;;;;;;;48.30;29.90;;;5.10;99.90;;;;;;5054590;28;20195;-47
2022/12/02 09:59:10;;;;;;;47.57;30.70;;;5.20;99.90;;;;;;5054625;28;20210;-47
2022/12/02 10:01:36;;;;;;;54.50;32.73;;;5.40;99.90;;;;;;5054511;28;20171;-47
2022/12/02 10:04:03;;;;;;;46.00;29.47;;;5.40;99.90;;;;;;5054509;28;20179;-47
2022/12/02 10:06:29;;;;;;;50.40;31.90;;;5.50;99.90;;;;;;5054500;28;20663;-51
2022/12/02 10:08:56;;;;;;;49.83;29.70;;;5.50;99.90;;;;;;5054128;28;20214;-48
2022/12/02 10:11:31;;;;;;;50.50;31.00;;;5.50;99.90;;;;;;5054770;28;20174;-51
2022/12/02 10:13:58;;;;;;;48.17;29.90;;;5.40;99.90;;;;;;5054268;28;20182;-46
2022/12/02 10:16:25;;;;;;;52.43;32.77;;;5.30;99.90;;;;;;5054565;28;20560;-52
2022/12/02 10:18:52;;;;;;;46.13;29.67;;;5.30;99.90;;;;;;5036102;28;20660;-47
2022/12/02 10:21:18;;;;;;;50.13;30.97;;;5.10;99.90;;;;;;5053668;28;20664;-51
2022/12/02 10:23:54;;;;;;;44.23;28.10;;;5.00;99.90;;;;;;5053310;28;20175;-47
2022/12/02 10:26:20;;;;;;;46.13;29.50;;;4.90;99.90;;;;;;5054325;28;20647;-50
2022/12/02 10:29:07;;;;;;;47.53;29.40;;;5.00;99.90;;;;;;5053172;28;20198;-47
2022/12/02 10:31:33;;;;;;;46.00;29.50;;;5.00;99.90;;;;;;5054111;28;20174;-50
2022/12/02 10:34:04;;;;;;;45.73;29.47;;;4.70;99.90;;;;;;5054112;28;20178;-52
2022/12/02 10:36:36;;;;;;;44.60;28.87;;;4.60;99.90;;;;;;5053174;28;20175;-47
2022/12/02 10:39:28;;;;;;;45.23;28.83;;;4.70;99.90;;;;;;5053691;28;20206;-51
2022/12/02 10:42:03;;;;;;;51.10;31.53;;;4.80;99.90;;;;;;5054095;28;20183;-48
2022/12/02 10:44:29;;;;;;;52.23;32.10;;;4.80;99.90;;;;;;5053972;28;20657;-47
2022/12/02 10:47:17;;;;;;;46.97;30.27;;;4.90;99.90;;;;;;5053538;28;20186;-47
2022/12/02 10:49:55;;;;;;;47.03;30.13;;;4.80;99.90;;;;;;5053933;28;20292;-47
2022/12/02 10:52:41;;;;;;;48.07;29.13;;;4.60;99.90;;;;;;5053682;28;20266;-49
2022/12/02 10:55:10;;;;;;;44.40;28.80;;;4.80;99.90;;;;;;5053585;28;20183;-48
2022/12/02 10:57:37;;;;;;;44.37;28.60;;;4.90;99.90;;;;;;5053510;28;20194;-48
2022/12/02 11:00:17;;;;;;;46.00;30.17;;;5.00;99.90;;;;;;5053500;28;20256;-53
2022/12/02 11:02:58;;;;;;;51.87;32.23;;;5.00;99.90;;;;;;5053802;28;20201;-51
2022/12/02 11:05:32;;;;;;;48.40;31.83;;;5.10;99.90;;;;;;5052451;28;20171;-47
2022/12/02 11:08:15;;;;;;;48.53;31.83;;;5.20;99.90;;;;;;5108409;22;20202;-56
2022/12/02 11:10:43;;;;;;;43.60;28.63;;;5.50;99.90;;;;;;5059964;28;20720;-59
2022/12/02 11:13:11;;;;;;;45.57;28.13;;;6.80;99.90;;;;;;5060569;28;20175;-60
2022/12/02 11:15:44;;;;;;;49.77;31.93;;;5.60;99.90;;;;;;5055489;28;20179;-60
2022/12/02 11:18:22;;;;;;;42.03;27.33;;;5.50;99.90;;;;;;5063481;28;20197;-60
2022/12/02 11:20:53;;;;;;;42.10;28.73;;;5.40;99.90;;;;;;5077194;28;20294;-59
2022/12/02 11:23:26;;;;;;;42.53;29.00;;;5.20;99.90;;;;;;5075151;28;20175;-60
2022/12/02 11:25:57;;;;;;;45.43;27.67;;;5.10;99.90;;;;;;5078336;28;20182;-60
2022/12/02 11:28:28;;;;;;;40.70;28.80;;;5.10;99.90;;;;;;5061223;28;20190;-58
2022/12/02 11:31:09;;;;;;;39.43;27.30;;;5.90;99.90;;;;;;5080984;28;20170;-59
2022/12/02 11:33:47;;;;;;;42.60;27.33;;;5.10;99.90;;;;;;5077619;28;20181;-62
2022/12/02 11:36:25;;;;;;;41.73;27.10;;;5.20;99.90;;;;;;5079323;28;20170;-61
2022/12/02 11:38:51;;;;;;;45.53;27.93;;;5.30;99.90;;;;;;5078830;28;20244;-61
2022/12/02 11:41:25;;;;;;;38.23;26.43;;;5.40;99.90;;;;;;5057789;28;20208;-60
2022/12/02 11:44:20;;;;;;;39.37;26.40;;;5.40;99.90;;;;;;5075955;28;20182;-59
2022/12/02 11:46:45;;;;;;;39.30;25.43;;;5.30;99.90;;;;;;5078104;28;20185;-61
2022/12/02 11:49:32;;;;;;;39.83;27.10;;;6.10;99.90;;;;;;5079152;28;20257;-56
2022/12/02 11:52:12;;;;;;;37.33;24.90;;;5.50;99.90;;;;;;5078752;28;20210;-60
2022/12/02 11:54:41;;;;;;;39.13;25.60;;;5.20;99.90;;;;;;5078451;28;20201;-58
2022/12/02 11:57:35;;;;;;;37.57;25.13;;;5.30;99.90;;;;;;5058902;28;20700;-53
2022/12/02 12:00:00;;;;;;;36.97;25.40;;;5.10;99.90;;;;;;5036709;28;20274;-59
2022/12/02 12:02:26;;;;;;;36.43;25.10;;;5.00;99.90;;;;;;5031859;28;20282;-59
2022/12/02 12:05:06;;;;;;;37.10;24.50;;;5.20;99.90;;;;;;5041563;28;20280;-60
2022/12/02 12:07:49;;;;;;;34.80;23.93;;;5.20;99.90;;;;;;5027751;28;20180;-57
2022/12/02 12:10:38;;;;;;;57.87;41.83;;;5.00;99.90;;;;;;5038916;28;20195;-61
2022/12/02 12:13:22;;;;;;;66.83;47.40;;;5.00;99.90;;;;;;5044464;28;20179;-60
2022/12/02 12:15:49;;;;;;;68.33;45.20;;;5.00;99.90;;;;;;5026310;28;20182;-60
2022/12/02 12:18:37;;;;;;;77.03;50.20;;;4.90;99.90;;;;;;5028053;28;20303;-61
2022/12/02 12:21:02;;;;;;;63.67;42.73;;;4.90;99.90;;;;;;5044320;28;20242;-61
2022/12/02 12:23:40;;;;;;;39.63;28.60;;;5.10;99.90;;;;;;5027359;28;20625;-57
2022/12/02 12:26:07;;;;;;;38.43;27.40;;;5.20;99.90;;;;;;5046055;28;20168;-60
2022/12/02 12:28:35;;;;;;;42.27;31.20;;;5.20;99.90;;;;;;5044599;28;20192;-59
2022/12/02 12:31:02;;;;;;;41.87;28.27;;;5.40;99.90;;;;;;5028191;28;20206;-58
2022/12/02 12:33:28;;;;;;;44.83;31.70;;;6.40;99.90;;;;;;5028243;28;20217;-55
2022/12/02 12:35:55;;;;;;;38.53;28.13;;;5.70;99.90;;;;;;5044255;28;20187;-62
2022/12/02 12:38:26;;;;;;;35.87;24.70;;;6.20;99.90;;;;;;5091676;28;20190;-60
2022/12/02 12:40:53;;;;;;;37.00;25.60;;;6.10;99.90;;;;;;5051680;28;20198;-61
2022/12/02 12:43:19;;;;;;;39.87;26.30;;;6.60;99.90;;;;;;5067387;28;20174;-61
2022/12/02 12:45:44;;;;;;;32.80;23.27;;;5.90;99.90;;;;;;5066020;28;20162;-60
2022/12/02 12:48:10;;;;;;;41.80;27.90;;;7.50;99.90;;;;;;5066122;28;20721;-60
2022/12/02 12:50:35;;;;;;;35.70;24.23;;;5.40;99.90;;;;;;5059056;28;20205;-62
2022/12/02 12:53:01;;;;;;;35.90;24.97;;;5.80;99.90;;;;;;5083208;28;20183;-60